Les Eplatures Airport

Airport
ICAO code: 
LSGC
IATA Code: 
ZHV
Summary
ICAO Region: 
EUR
Territory: 
Location: 
La Chaux-de-Fonds, Neuchatel
Serving: 
Les Eplatures
Elevation: 
3368 ft
Coordinates: 
Aerial View: 
47° 5' 1.86" N, 6° 47' 34.21" E
Metar
Observation
LSGC 200120Z AUTO 21006KT 3900 -SN BKN005 BKN007 M03/M03 Q1024
Station
Les Eplatures
Date/Time
2022-01-20 01:20:00
Wind direction
210°
Wind speed
06 kts
Lowest cloud amount
broken clouds
Temperature
-3°C
Dew point
-3°C
Humidity
100%
QNH
1024 hPa
Weather condition
n/a

Les Eplatures Airport is a small international airport near La Chaux-de-Fonds, Switzerland.

Climatology

Humid continental climate (Köppen climate classification Dfb)

Runways

Designator Length Width Surface Rops
6/24 1130 27 ASP No/No
Airport map: 
Aerial View: 

SKYbrary Partners:

Safety knowledge contributed by: